Time;durP1;ratioP1;P1;durP2;ratioP2;P2;SDS_P1;SDS_P2;PMS_P1;PMS_P2;Temp;Humidity;BMP_temperature;BMP_pressure;BME280_temperature;BME280_humidity;BME280_pressure;Samples;Min_cycle;Max_cycle;Signal;HPM_P1;HPM_P2
2023/10/04 00:01:20;;;;;;;1.90;1.80;;;;;;;;;;5046759;28;20486;-66
2023/10/04 00:03:49;;;;;;;1.63;1.52;;;;;;;;;;5050322;28;20076;-66
2023/10/04 00:06:19;;;;;;;1.90;1.80;;;;;;;;;;5046244;28;20131;-65
2023/10/04 00:08:48;;;;;;;1.85;1.75;;;;;;;;;;5042994;28;20080;-66
2023/10/04 00:11:16;;;;;;;1.85;1.60;;;;;;;;;;5047708;28;20450;-66
2023/10/04 00:13:46;;;;;;;1.60;1.50;;;;;;;;;;5036208;28;20456;-65
2023/10/04 00:16:15;;;;;;;1.55;1.45;;;;;;;;;;5047103;28;20037;-65
2023/10/04 00:18:44;;;;;;;1.65;1.55;;;;;;;;;;5040414;28;20068;-65
2023/10/04 00:21:13;;;;;;;1.40;1.30;;;;;;;;;;5044150;28;20080;-65
2023/10/04 00:23:43;;;;;;;1.52;1.42;;;;;;;;;;5033500;28;20425;-66
2023/10/04 00:26:12;;;;;;;1.65;1.55;;;;;;;;;;5043993;28;20040;-66
2023/10/04 00:28:40;;;;;;;1.63;1.52;;;;;;;;;;5038943;28;20099;-65
2023/10/04 00:31:08;;;;;;;1.60;1.50;;;;;;;;;;5050459;28;20081;-65
2023/10/04 00:33:38;;;;;;;1.70;1.60;;;;;;;;;;5045643;28;20063;-65
2023/10/04 00:36:07;;;;;;;1.92;1.80;;;;;;;;;;5047857;28;20521;-65
2023/10/04 00:38:35;;;;;;;1.60;1.50;;;;;;;;;;5045000;28;20127;-66
2023/10/04 00:41:11;;;;;;;1.75;1.60;;;;;;;;;;5047832;28;20045;-65
2023/10/04 00:43:49;;;;;;;1.73;1.63;;;;;;;;;;5048974;28;20071;-65
2023/10/04 00:46:19;;;;;;;1.70;1.60;;;;;;;;;;5049417;28;20075;-66
2023/10/04 00:48:49;;;;;;;1.65;1.55;;;;;;;;;;5050884;28;20772;-65
2023/10/04 00:51:22;;;;;;;1.52;1.42;;;;;;;;;;5047801;28;20061;-66
2023/10/04 00:53:52;;;;;;;1.60;1.50;;;;;;;;;;5052358;28;20052;-66
2023/10/04 00:56:22;;;;;;;1.70;1.60;;;;;;;;;;5044833;28;20098;-65
2023/10/04 00:58:51;;;;;;;2.72;1.60;;;;;;;;;;5043052;28;20076;-65
2023/10/04 01:01:19;;;;;;;1.60;1.50;;;;;;;;;;5047812;28;20596;-65
2023/10/04 01:03:48;;;;;;;1.80;1.70;;;;;;;;;;5047223;28;20053;-66
2023/10/04 01:06:17;;;;;;;1.98;1.80;;;;;;;;;;5047384;28;20544;-65
2023/10/04 01:08:47;;;;;;;1.50;1.40;;;;;;;;;;5051984;28;20056;-65
2023/10/04 01:11:15;;;;;;;1.83;1.73;;;;;;;;;;5049381;28;20333;-65
2023/10/04 01:13:47;;;;;;;1.85;1.75;;;;;;;;;;5037359;28;20045;-65
2023/10/04 01:16:16;;;;;;;1.50;1.40;;;;;;;;;;5051217;28;20048;-66
2023/10/04 01:18:45;;;;;;;1.70;1.60;;;;;;;;;;5043995;28;20064;-65
2023/10/04 01:21:16;;;;;;;1.98;1.80;;;;;;;;;;5046475;28;20406;-65
2023/10/04 01:23:47;;;;;;;1.70;1.60;;;;;;;;;;5040007;28;20053;-65
2023/10/04 01:26:25;;;;;;;1.70;1.60;;;;;;;;;;5047134;28;20134;-65
2023/10/04 01:28:55;;;;;;;1.50;1.40;;;;;;;;;;5042013;28;20057;-65
2023/10/04 01:31:25;;;;;;;1.80;1.65;;;;;;;;;;5045754;28;20045;-65
2023/10/04 01:33:54;;;;;;;1.58;1.48;;;;;;;;;;5041109;28;20542;-65
2023/10/04 01:36:23;;;;;;;1.70;1.60;;;;;;;;;;5047779;28;20141;-65
2023/10/04 01:38:53;;;;;;;1.60;1.50;;;;;;;;;;5043997;28;20565;-65
2023/10/04 01:41:22;;;;;;;2.05;1.70;;;;;;;;;;5047368;28;20123;-65
2023/10/04 01:43:53;;;;;;;1.52;1.50;;;;;;;;;;5045307;28;20061;-65
2023/10/04 01:46:21;;;;;;;2.80;1.88;;;;;;;;;;5044273;28;20053;-65
2023/10/04 01:48:51;;;;;;;1.60;1.50;;;;;;;;;;5048713;28;20482;-65
2023/10/04 01:51:21;;;;;;;2.08;1.88;;;;;;;;;;5047561;28;20621;-65
2023/10/04 01:53:52;;;;;;;1.70;1.60;;;;;;;;;;5047760;28;20092;-65
2023/10/04 01:56:22;;;;;;;1.80;1.70;;;;;;;;;;5043583;28;20153;-65
2023/10/04 01:58:51;;;;;;;1.63;1.52;;;;;;;;;;5051987;28;20053;-65
2023/10/04 02:01:19;;;;;;;1.83;1.70;;;;;;;;;;5046600;28;20049;-65
2023/10/04 02:03:48;;;;;;;1.70;1.60;;;;;;;;;;5051293;28;20048;-65
2023/10/04 02:06:17;;;;;;;1.73;1.63;;;;;;;;;;5046318;28;20162;-65
2023/10/04 02:08:45;;;;;;;1.90;1.80;;;;;;;;;;5049199;28;20059;-65
2023/10/04 02:11:14;;;;;;;1.80;1.70;;;;;;;;;;5046333;28;20406;-65
2023/10/04 02:13:44;;;;;;;1.70;1.60;;;;;;;;;;5037113;28;20049;-65
2023/10/04 02:16:18;;;;;;;1.73;1.63;;;;;;;;;;5048837;28;20044;-65
2023/10/04 02:18:48;;;;;;;1.35;1.35;;;;;;;;;;5040180;28;20080;-65
2023/10/04 02:21:18;;;;;;;1.52;1.42;;;;;;;;;;5047273;28;20055;-65
2023/10/04 02:23:46;;;;;;;1.63;1.52;;;;;;;;;;5046786;28;20057;-65
2023/10/04 02:26:14;;;;;;;1.60;1.50;;;;;;;;;;5047512;28;20037;-65
2023/10/04 02:28:45;;;;;;;1.65;1.55;;;;;;;;;;5048533;28;20131;-65
2023/10/04 02:31:14;;;;;;;1.60;1.50;;;;;;;;;;5045452;28;20052;-65
2023/10/04 02:33:43;;;;;;;1.60;1.50;;;;;;;;;;5041918;28;20050;-65
2023/10/04 02:36:12;;;;;;;1.80;1.63;;;;;;;;;;5044957;28;20055;-65
2023/10/04 02:38:40;;;;;;;1.45;1.35;;;;;;;;;;5043357;28;20095;-65
2023/10/04 02:41:10;;;;;;;1.67;1.58;;;;;;;;;;5041926;28;20130;-66
2023/10/04 02:43:40;;;;;;;2.00;1.90;;;;;;;;;;5043678;28;20091;-66
2023/10/04 02:46:11;;;;;;;1.63;1.52;;;;;;;;;;5047277;28;20104;-65
2023/10/04 02:48:41;;;;;;;1.80;1.70;;;;;;;;;;5035428;28;20051;-65
2023/10/04 02:51:10;;;;;;;1.65;1.55;;;;;;;;;;5047853;28;20144;-65
2023/10/04 02:53:41;;;;;;;2.05;1.67;;;;;;;;;;5043660;28;20107;-65
2023/10/04 02:56:09;;;;;;;1.70;1.60;;;;;;;;;;5048520;28;20045;-65
2023/10/04 02:58:38;;;;;;;1.70;1.60;;;;;;;;;;5030901;28;20049;-65
2023/10/04 03:01:08;;;;;;;1.75;1.65;;;;;;;;;;5043835;28;20077;-65
2023/10/04 03:03:38;;;;;;;1.70;1.60;;;;;;;;;;5037179;28;20060;-65
2023/10/04 03:06:07;;;;;;;2.00;1.90;;;;;;;;;;5041337;28;20127;-65
2023/10/04 03:08:36;;;;;;;2.10;1.95;;;;;;;;;;5044400;28;20094;-65
2023/10/04 03:11:04;;;;;;;2.00;1.90;;;;;;;;;;5041278;28;20049;-65
2023/10/04 03:13:33;;;;;;;2.20;2.00;;;;;;;;;;5033914;28;20055;-65
2023/10/04 03:16:02;;;;;;;3.38;2.20;;;;;;;;;;5040096;28;20053;-66
2023/10/04 03:18:31;;;;;;;2.05;1.90;;;;;;;;;;5041642;28;20343;-65
2023/10/04 03:21:10;;;;;;;1.90;1.80;;;;;;;;;;5042494;28;20046;-65
2023/10/04 03:23:41;;;;;;;1.95;1.85;;;;;;;;;;5040669;28;20506;-65
2023/10/04 03:26:12;;;;;;;1.80;1.70;;;;;;;;;;5041615;28;20041;-65
2023/10/04 03:28:41;;;;;;;2.00;1.90;;;;;;;;;;5039178;28;20419;-65
2023/10/04 03:31:11;;;;;;;2.45;2.30;;;;;;;;;;5043561;28;20517;-65
2023/10/04 03:33:40;;;;;;;2.00;1.90;;;;;;;;;;5040473;28;20052;-65
2023/10/04 03:36:14;;;;;;;1.90;1.80;;;;;;;;;;5039933;28;20133;-66
2023/10/04 03:38:43;;;;;;;2.47;2.38;;;;;;;;;;5030572;28;20081;-65
2023/10/04 03:41:12;;;;;;;2.03;1.92;;;;;;;;;;5042861;28;20037;-65
2023/10/04 03:43:41;;;;;;;3.25;2.63;;;;;;;;;;5034246;28;20491;-65
2023/10/04 03:46:17;;;;;;;2.85;2.65;;;;;;;;;;5039180;28;20102;-65
2023/10/04 03:48:46;;;;;;;2.38;2.17;;;;;;;;;;5045647;28;20466;-65
2023/10/04 03:51:18;;;;;;;2.95;2.60;;;;;;;;;;5040932;28;20056;-65
2023/10/04 03:53:49;;;;;;;2.13;2.03;;;;;;;;;;5044681;28;20118;-64
2023/10/04 03:56:18;;;;;;;2.50;2.40;;;;;;;;;;5044864;28;20126;-65
2023/10/04 03:58:48;;;;;;;2.65;2.45;;;;;;;;;;5041943;28;20170;-65
2023/10/04 04:01:17;;;;;;;2.78;2.58;;;;;;;;;;5042185;28;20432;-65
2023/10/04 04:03:48;;;;;;;2.50;2.40;;;;;;;;;;5040319;28;20045;-65
2023/10/04 04:06:18;;;;;;;2.80;2.33;;;;;;;;;;5040809;28;20045;-65
2023/10/04 04:08:47;;;;;;;2.33;2.22;;;;;;;;;;5037471;28;20064;-65
2023/10/04 04:11:17;;;;;;;2.75;2.60;;;;;;;;;;5043235;28;20082;-65
2023/10/04 04:13:45;;;;;;;2.40;2.30;;;;;;;;;;5036349;28;20041;-65
2023/10/04 04:16:17;;;;;;;2.50;2.40;;;;;;;;;;5041633;28;20420;-65
2023/10/04 04:18:47;;;;;;;2.42;2.22;;;;;;;;;;5050958;28;20131;-65
2023/10/04 04:21:16;;;;;;;2.20;2.10;;;;;;;;;;5042469;28;20094;-65
2023/10/04 04:23:46;;;;;;;2.30;2.10;;;;;;;;;;5043799;28;20459;-65
2023/10/04 04:26:15;;;;;;;2.25;2.05;;;;;;;;;;5045239;28;20045;-65
2023/10/04 04:28:44;;;;;;;2.35;2.25;;;;;;;;;;5041216;28;20053;-65
2023/10/04 04:31:16;;;;;;;2.22;2.08;;;;;;;;;;5040000;28;20140;-66
2023/10/04 04:33:45;;;;;;;1.80;1.70;;;;;;;;;;5047952;28;20045;-65
2023/10/04 04:36:18;;;;;;;2.22;2.13;;;;;;;;;;5041209;28;20045;-65
2023/10/04 04:38:48;;;;;;;2.08;1.92;;;;;;;;;;5049669;28;20083;-65
2023/10/04 04:41:21;;;;;;;2.00;1.90;;;;;;;;;;5051206;28;20048;-65
2023/10/04 04:43:50;;;;;;;5.28;2.35;;;;;;;;;;5046305;28;20061;-64
2023/10/04 04:46:19;;;;;;;1.90;1.80;;;;;;;;;;5046995;28;20041;-65
2023/10/04 04:48:48;;;;;;;3.72;2.42;;;;;;;;;;5044577;28;20044;-64
2023/10/04 04:51:18;;;;;;;1.88;1.77;;;;;;;;;;5045959;28;20053;-65
2023/10/04 04:53:50;;;;;;;1.88;1.77;;;;;;;;;;5048149;28;20539;-65
2023/10/04 04:56:21;;;;;;;1.90;1.80;;;;;;;;;;5044175;28;20524;-65
2023/10/04 04:58:51;;;;;;;1.83;1.70;;;;;;;;;;5054246;28;20548;-64
2023/10/04 05:01:21;;;;;;;1.75;1.65;;;;;;;;;;5047302;28;20049;-65
2023/10/04 05:03:51;;;;;;;1.80;1.70;;;;;;;;;;5042970;28;20048;-66
2023/10/04 05:06:22;;;;;;;1.63;1.52;;;;;;;;;;5044951;28;20489;-65
2023/10/04 05:08:54;;;;;;;2.00;1.88;;;;;;;;;;5039611;28;20672;-65
2023/10/04 05:11:23;;;;;;;2.30;1.98;;;;;;;;;;5047837;28;20349;-64
2023/10/04 05:13:53;;;;;;;2.08;1.98;;;;;;;;;;5045162;28;20053;-65
2023/10/04 05:16:22;;;;;;;2.25;1.77;;;;;;;;;;5042264;28;20048;-64
2023/10/04 05:18:51;;;;;;;2.15;2.05;;;;;;;;;;5040350;28;20743;-64
2023/10/04 05:21:19;;;;;;;3.40;2.30;;;;;;;;;;5042311;28;20048;-65
2023/10/04 05:23:47;;;;;;;1.73;1.63;;;;;;;;;;5046594;28;20410;-64
2023/10/04 05:26:19;;;;;;;1.42;1.42;;;;;;;;;;5044291;28;20057;-64
2023/10/04 05:28:47;;;;;;;2.97;2.08;;;;;;;;;;5049968;28;20497;-64
2023/10/04 05:31:15;;;;;;;1.95;1.85;;;;;;;;;;5042300;28;20437;-64
2023/10/04 05:33:44;;;;;;;2.10;2.00;;;;;;;;;;5046077;28;20048;-64
2023/10/04 05:36:13;;;;;;;1.80;1.70;;;;;;;;;;5037953;28;20037;-65
2023/10/04 05:38:41;;;;;;;2.00;1.90;;;;;;;;;;5041196;28;20055;-64
2023/10/04 05:41:11;;;;;;;2.55;2.20;;;;;;;;;;5041034;28;20138;-65
2023/10/04 05:43:40;;;;;;;1.90;1.80;;;;;;;;;;5044679;28;20041;-64
2023/10/04 05:46:09;;;;;;;2.40;2.20;;;;;;;;;;5044192;28;20614;-64
2023/10/04 05:48:37;;;;;;;4.53;2.38;;;;;;;;;;5049456;28;20048;-66
2023/10/04 05:51:08;;;;;;;2.15;2.05;;;;;;;;;;5047083;28;20140;-64
2023/10/04 05:53:37;;;;;;;2.28;2.08;;;;;;;;;;5040773;28;20173;-64
2023/10/04 05:56:06;;;;;;;2.88;2.10;;;;;;;;;;5041964;28;20124;-64
2023/10/04 05:58:35;;;;;;;2.17;2.05;;;;;;;;;;5043451;28;20481;-64
2023/10/04 06:01:06;;;;;;;2.00;1.90;;;;;;;;;;5041779;28;20087;-64
2023/10/04 06:03:36;;;;;;;2.10;1.95;;;;;;;;;;5041588;28;20041;-64
2023/10/04 06:06:04;;;;;;;2.00;1.90;;;;;;;;;;5038463;28;20098;-64
2023/10/04 06:08:33;;;;;;;2.10;1.90;;;;;;;;;;5043479;28;20041;-64
2023/10/04 06:11:04;;;;;;;2.10;2.00;;;;;;;;;;5041563;28;20045;-64
2023/10/04 06:13:34;;;;;;;1.50;1.50;;;;;;;;;;5043492;28;20049;-64
2023/10/04 06:16:04;;;;;;;1.85;1.75;;;;;;;;;;5042337;28;20048;-64
2023/10/04 06:18:34;;;;;;;2.00;1.90;;;;;;;;;;5043135;28;20943;-64
2023/10/04 06:21:05;;;;;;;2.92;1.98;;;;;;;;;;5040783;28;20049;-64
2023/10/04 06:23:34;;;;;;;1.70;1.60;;;;;;;;;;5042764;28;20398;-64
2023/10/04 06:26:03;;;;;;;1.85;1.75;;;;;;;;;;5039188;28;20048;-64
2023/10/04 06:28:31;;;;;;;2.92;2.35;;;;;;;;;;5041575;28;20486;-64
2023/10/04 06:30:59;;;;;;;1.77;1.67;;;;;;;;;;5042857;28;20132;-64
2023/10/04 06:33:28;;;;;;;2.92;2.72;;;;;;;;;;5043633;28;20548;-64
2023/10/04 06:35:57;;;;;;;1.98;1.77;;;;;;;;;;5043279;28;20041;-64
2023/10/04 06:38:26;;;;;;;2.03;1.60;;;;;;;;;;5043473;28;20494;-63
2023/10/04 06:40:54;;;;;;;2.35;2.05;;;;;;;;;;5043965;28;20115;-63
2023/10/04 06:43:23;;;;;;;3.83;2.30;;;;;;;;;;5043878;28;20056;-64
2023/10/04 06:45:51;;;;;;;3.80;2.00;;;;;;;;;;5042273;28;20671;-64
2023/10/04 06:48:20;;;;;;;3.15;2.38;;;;;;;;;;5044827;28;20041;-65
2023/10/04 06:50:49;;;;;;;3.38;2.20;;;;;;;;;;5043220;28;20047;-64
2023/10/04 06:53:22;;;;;;;2.17;2.00;;;;;;;;;;5041643;28;20491;-64
2023/10/04 06:55:50;;;;;;;2.10;2.00;;;;;;;;;;5042597;28;20052;-64
2023/10/04 06:58:21;;;;;;;2.72;2.38;;;;;;;;;;5042031;28;20413;-64
2023/10/04 07:00:50;;;;;;;2.85;2.17;;;;;;;;;;5042658;28;20045;-64
2023/10/04 07:03:18;;;;;;;2.05;1.95;;;;;;;;;;5044544;28;20049;-64
2023/10/04 07:05:49;;;;;;;2.22;1.98;;;;;;;;;;5044423;28;20055;-64
2023/10/04 07:08:17;;;;;;;2.53;2.10;;;;;;;;;;5044030;28;20666;-64
2023/10/04 07:10:47;;;;;;;1.77;1.67;;;;;;;;;;5042883;28;20494;-64
2023/10/04 07:13:16;;;;;;;1.50;1.45;;;;;;;;;;5042115;28;20686;-64
2023/10/04 07:15:46;;;;;;;2.03;1.90;;;;;;;;;;5042355;28;20063;-64
2023/10/04 07:18:14;;;;;;;2.00;1.90;;;;;;;;;;5042634;28;20051;-65
2023/10/04 07:20:43;;;;;;;1.90;1.80;;;;;;;;;;5041873;28;20051;-65
2023/10/04 07:23:13;;;;;;;2.03;1.90;;;;;;;;;;5042250;28;20114;-65
2023/10/04 07:25:54;;;;;;;1.88;1.77;;;;;;;;;;5040979;28;20422;-65
2023/10/04 07:28:24;;;;;;;2.10;2.00;;;;;;;;;;5042007;28;20049;-65
2023/10/04 07:30:54;;;;;;;2.03;1.92;;;;;;;;;;5042688;28;20095;-65
2023/10/04 07:33:23;;;;;;;2.22;1.98;;;;;;;;;;5040427;28;20052;-64
2023/10/04 07:35:51;;;;;;;2.50;2.30;;;;;;;;;;5041240;28;20061;-65
2023/10/04 07:38:20;;;;;;;2.28;2.08;;;;;;;;;;5041815;28;20117;-64
2023/10/04 07:40:49;;;;;;;2.55;2.35;;;;;;;;;;5042034;28;20041;-64
2023/10/04 07:43:19;;;;;;;2.35;2.17;;;;;;;;;;5038388;28;20045;-65
2023/10/04 07:45:47;;;;;;;2.03;1.92;;;;;;;;;;5035981;28;20049;-66
2023/10/04 07:48:17;;;;;;;2.10;1.90;;;;;;;;;;5041449;28;20529;-66
2023/10/04 07:50:46;;;;;;;2.17;2.03;;;;;;;;;;5043879;28;20504;-65
2023/10/04 07:53:15;;;;;;;2.20;2.00;;;;;;;;;;5042078;28;20075;-66
2023/10/04 07:55:43;;;;;;;2.72;2.10;;;;;;;;;;5038312;28;20440;-65
2023/10/04 07:58:12;;;;;;;1.92;1.83;;;;;;;;;;5040531;28;20041;-65
2023/10/04 08:00:41;;;;;;;2.03;1.80;;;;;;;;;;5041324;28;20069;-65
2023/10/04 08:03:10;;;;;;;2.17;2.00;;;;;;;;;;5039614;28;20051;-65
2023/10/04 08:05:39;;;;;;;1.77;1.67;;;;;;;;;;5042525;28;20049;-65
2023/10/04 08:08:08;;;;;;;1.77;1.67;;;;;;;;;;5045500;28;20148;-65
2023/10/04 08:10:39;;;;;;;1.90;1.80;;;;;;;;;;5045028;28;20057;-65
2023/10/04 08:13:10;;;;;;;1.88;1.70;;;;;;;;;;5042998;28;20099;-65
2023/10/04 08:15:39;;;;;;;1.88;1.77;;;;;;;;;;5041803;28;20064;-64
2023/10/04 08:18:13;;;;;;;3.50;1.70;;;;;;;;;;5044505;28;20462;-64
2023/10/04 08:20:42;;;;;;;1.70;1.60;;;;;;;;;;5043498;28;20059;-64
2023/10/04 08:23:10;;;;;;;2.20;2.00;;;;;;;;;;5045717;28;20037;-64
2023/10/04 08:25:39;;;;;;;1.70;1.60;;;;;;;;;;5040419;28;20241;-65
2023/10/04 08:28:09;;;;;;;2.40;1.70;;;;;;;;;;5043897;28;20456;-65
2023/10/04 08:30:40;;;;;;;1.73;1.63;;;;;;;;;;5044662;28;20094;-64
2023/10/04 08:33:10;;;;;;;1.92;1.83;;;;;;;;;;5044405;28;20060;-64
2023/10/04 08:35:39;;;;;;;1.70;1.60;;;;;;;;;;5044256;28;20355;-64
2023/10/04 08:38:08;;;;;;;1.85;1.75;;;;;;;;;;5044013;28;20060;-63
2023/10/04 08:40:39;;;;;;;2.00;1.80;;;;;;;;;;5042867;28;20557;-63
2023/10/04 08:43:08;;;;;;;1.90;1.80;;;;;;;;;;5041565;28;20061;-64
2023/10/04 08:45:37;;;;;;;2.30;2.10;;;;;;;;;;5045389;28;20057;-63
2023/10/04 08:48:07;;;;;;;2.38;2.17;;;;;;;;;;5041786;28;20059;-64
2023/10/04 08:50:44;;;;;;;2.25;2.15;;;;;;;;;;5043874;28;20045;-64
2023/10/04 08:53:15;;;;;;;2.22;2.13;;;;;;;;;;5044247;28;20045;-64
2023/10/04 08:55:46;;;;;;;1.90;1.80;;;;;;;;;;5040978;28;20490;-63
2023/10/04 08:58:14;;;;;;;3.40;2.25;;;;;;;;;;5044754;28;20045;-64
2023/10/04 09:00:44;;;;;;;2.38;2.10;;;;;;;;;;5039420;28;20341;-63
2023/10/04 09:03:14;;;;;;;3.35;1.80;;;;;;;;;;5044821;28;20479;-64
2023/10/04 09:05:46;;;;;;;1.80;1.70;;;;;;;;;;5044478;28;20076;-64
2023/10/04 09:08:16;;;;;;;1.73;1.63;;;;;;;;;;5045880;28;20140;-64
2023/10/04 09:10:45;;;;;;;1.77;1.67;;;;;;;;;;5044795;28;20466;-64
2023/10/04 09:13:14;;;;;;;1.63;1.52;;;;;;;;;;5045094;28;21826;-64
2023/10/04 09:15:43;;;;;;;2.13;1.70;;;;;;;;;;5044147;28;20040;-64
2023/10/04 09:18:12;;;;;;;2.75;1.67;;;;;;;;;;5041305;28;20501;-64
2023/10/04 09:20:42;;;;;;;2.08;1.80;;;;;;;;;;5041383;28;20044;-66
2023/10/04 09:23:20;;;;;;;2.00;1.90;;;;;;;;;;5044898;28;20048;-65
2023/10/04 09:25:48;;;;;;;1.70;1.60;;;;;;;;;;5044406;28;20534;-64
2023/10/04 09:28:18;;;;;;;1.90;1.80;;;;;;;;;;5045077;28;20045;-63
2023/10/04 09:30:46;;;;;;;1.85;1.65;;;;;;;;;;5042819;28;20048;-64
2023/10/04 09:33:28;;;;;;;2.00;1.80;;;;;;;;;;5044544;28;20052;-64
2023/10/04 09:35:57;;;;;;;3.00;1.70;;;;;;;;;;5042650;28;20045;-64
2023/10/04 09:38:29;;;;;;;1.60;1.50;;;;;;;;;;5043553;28;20402;-64
2023/10/04 09:40:59;;;;;;;1.60;1.50;;;;;;;;;;5039678;28;20545;-64
2023/10/04 09:43:35;;;;;;;1.70;1.60;;;;;;;;;;5044789;28;20048;-64
2023/10/04 09:46:06;;;;;;;3.25;1.80;;;;;;;;;;5041858;28;20056;-64
2023/10/04 09:48:37;;;;;;;3.03;1.60;;;;;;;;;;5047175;28;20076;-65
2023/10/04 09:51:07;;;;;;;1.92;1.83;;;;;;;;;;5043498;28;20484;-64
2023/10/04 09:53:38;;;;;;;1.88;1.77;;;;;;;;;;5045555;28;20044;-65
2023/10/04 09:56:11;;;;;;;2.67;1.85;;;;;;;;;;5044466;28;20136;-64
2023/10/04 09:58:45;;;;;;;2.42;2.17;;;;;;;;;;5044453;28;20057;-64
2023/10/04 10:01:14;;;;;;;3.50;2.80;;;;;;;;;;5038312;28;20045;-64
2023/10/04 10:03:48;;;;;;;3.05;2.85;;;;;;;;;;5042046;28;20127;-64
2023/10/04 10:06:17;;;;;;;;;;;;;;;;;;5042207;28;20548;-64
2023/10/04 10:08:50;;;;;;;2.78;2.67;;;;;;;;;;5039638;28;20015;-64
2023/10/04 10:11:19;;;;;;;2.90;2.80;;;;;;;;;;5044116;28;20052;-64
2023/10/04 10:13:49;;;;;;;2.83;2.63;;;;;;;;;;5043585;28;20555;-64
2023/10/04 10:16:19;;;;;;;2.70;2.50;;;;;;;;;;5041360;28;20056;-64
2023/10/04 10:18:48;;;;;;;2.20;2.10;;;;;;;;;;5044360;28;20387;-64
2023/10/04 10:21:17;;;;;;;2.22;2.13;;;;;;;;;;5040876;28;20077;-63
2023/10/04 10:24:03;;;;;;;2.03;1.92;;;;;;;;;;5038696;28;20049;-64
2023/10/04 10:26:33;;;;;;;2.25;2.05;;;;;;;;;;5041289;28;20064;-64
2023/10/04 10:29:03;;;;;;;1.90;1.80;;;;;;;;;;5041525;28;20602;-64
2023/10/04 10:31:32;;;;;;;1.77;1.67;;;;;;;;;;5045016;28;20144;-65
2023/10/04 10:34:04;;;;;;;1.60;1.50;;;;;;;;;;5044031;28;20045;-64
2023/10/04 10:36:33;;;;;;;1.58;1.48;;;;;;;;;;5043452;28;20229;-64
2023/10/04 10:39:19;;;;;;;1.88;1.77;;;;;;;;;;5045290;28;20414;-64
2023/10/04 10:41:57;;;;;;;1.65;1.55;;;;;;;;;;5043418;28;20611;-64
2023/10/04 10:44:33;;;;;;;1.80;1.70;;;;;;;;;;5041537;28;20119;-64
2023/10/04 10:47:06;;;;;;;2.78;1.88;;;;;;;;;;5043841;28;20045;-64
2023/10/04 10:49:59;;;;;;;1.50;1.40;;;;;;;;;;5042620;28;20049;-64
2023/10/04 10:52:39;;;;;;;1.50;1.40;;;;;;;;;;5041031;28;20045;-64
2023/10/04 10:55:15;;;;;;;1.92;1.73;;;;;;;;;;5039812;28;20037;-65
2023/10/04 10:57:45;;;;;;;2.05;1.38;;;;;;;;;;5042208;28;20041;-64
2023/10/04 11:00:19;;;;;;;1.80;1.70;;;;;;;;;;5041948;28;20064;-64
2023/10/04 11:02:51;;;;;;;1.73;1.63;;;;;;;;;;5042411;28;20041;-65
2023/10/04 11:05:21;;;;;;;1.63;1.52;;;;;;;;;;5042134;28;20055;-66
2023/10/04 11:07:50;;;;;;;1.85;1.75;;;;;;;;;;5042246;28;20515;-65
2023/10/04 11:10:20;;;;;;;1.92;1.60;;;;;;;;;;5038836;28;20492;-65
2023/10/04 11:12:49;;;;;;;1.85;1.75;;;;;;;;;;5038902;28;20070;-64
2023/10/04 11:15:23;;;;;;;1.70;1.60;;;;;;;;;;5040967;28;20045;-64
2023/10/04 11:17:51;;;;;;;1.83;1.73;;;;;;;;;;5041554;28;20368;-65
2023/10/04 11:20:21;;;;;;;1.90;1.80;;;;;;;;;;5041823;28;20052;-64
2023/10/04 11:22:50;;;;;;;2.13;2.00;;;;;;;;;;5042579;28;20478;-64
2023/10/04 11:25:20;;;;;;;2.97;1.90;;;;;;;;;;5040309;28;20523;-64
2023/10/04 11:27:49;;;;;;;2.33;2.17;;;;;;;;;;5041283;28;20126;-64
2023/10/04 11:30:19;;;;;;;3.00;1.95;;;;;;;;;;5039325;28;20132;-63
2023/10/04 11:32:47;;;;;;;2.08;1.90;;;;;;;;;;5043802;28;20140;-65
2023/10/04 11:35:16;;;;;;;1.42;1.38;;;;;;;;;;5041207;28;20056;-64
2023/10/04 11:37:45;;;;;;;1.98;1.65;;;;;;;;;;5040756;28;20479;-64
2023/10/04 11:40:14;;;;;;;2.53;1.42;;;;;;;;;;5041084;28;20037;-64
2023/10/04 11:42:44;;;;;;;2.80;1.73;;;;;;;;;;5044054;28;20041;-65
2023/10/04 11:45:17;;;;;;;1.92;1.50;;;;;;;;;;5042527;28;20076;-65
2023/10/04 11:47:57;;;;;;;2.15;1.98;;;;;;;;;;5040226;28;20060;-64
2023/10/04 11:50:27;;;;;;;1.70;1.60;;;;;;;;;;5038814;28;20046;-64
2023/10/04 11:52:56;;;;;;;1.70;1.60;;;;;;;;;;5042996;28;20559;-64
2023/10/04 11:55:25;;;;;;;1.63;1.52;;;;;;;;;;5045026;28;20111;-64
2023/10/04 11:58:04;;;;;;;4.68;1.83;;;;;;;;;;5042637;28;20130;-65
2023/10/04 12:00:33;;;;;;;1.58;1.48;;;;;;;;;;5045220;28;20048;-65
2023/10/04 12:03:01;;;;;;;2.42;1.58;;;;;;;;;;5044598;28;20045;-64
2023/10/04 12:05:30;;;;;;;2.00;1.65;;;;;;;;;;5046253;28;20068;-64
2023/10/04 12:07:59;;;;;;;1.98;1.60;;;;;;;;;;5041659;28;20103;-64
2023/10/04 12:10:28;;;;;;;1.50;1.40;;;;;;;;;;5045472;28;20505;-64
2023/10/04 12:12:57;;;;;;;1.60;1.50;;;;;;;;;;5044354;28;20187;-64
2023/10/04 12:15:27;;;;;;;1.73;1.63;;;;;;;;;;5044024;28;20044;-64
2023/10/04 12:17:55;;;;;;;1.80;1.70;;;;;;;;;;5044943;28;20123;-65
2023/10/04 12:20:24;;;;;;;1.65;1.55;;;;;;;;;;5047145;28;20469;-64
2023/10/04 12:22:53;;;;;;;1.60;1.50;;;;;;;;;;5045676;28;20632;-65
2023/10/04 12:25:23;;;;;;;1.77;1.67;;;;;;;;;;5043051;28;20053;-65
2023/10/04 12:27:52;;;;;;;1.70;1.60;;;;;;;;;;5045626;28;20045;-64
2023/10/04 12:30:24;;;;;;;1.80;1.70;;;;;;;;;;5043813;28;20379;-64
2023/10/04 12:32:56;;;;;;;1.70;1.60;;;;;;;;;;5041066;28;20059;-64
2023/10/04 12:35:24;;;;;;;1.50;1.40;;;;;;;;;;5044665;28;20082;-65
2023/10/04 12:37:53;;;;;;;2.35;1.77;;;;;;;;;;5044437;28;20041;-64
2023/10/04 12:40:24;;;;;;;1.73;1.63;;;;;;;;;;5043654;28;20056;-64
2023/10/04 12:42:53;;;;;;;1.85;1.58;;;;;;;;;;5040748;28;20061;-64
2023/10/04 12:45:23;;;;;;;2.15;1.95;;;;;;;;;;5045077;28;20063;-64
2023/10/04 12:47:52;;;;;;;1.55;1.40;;;;;;;;;;5042892;28;20414;-64
2023/10/04 12:50:22;;;;;;;2.30;1.70;;;;;;;;;;5044342;28;20091;-65
2023/10/04 12:52:51;;;;;;;1.55;1.45;;;;;;;;;;5037840;28;20041;-64
2023/10/04 12:55:19;;;;;;;1.60;1.50;;;;;;;;;;5045750;28;20048;-64
2023/10/04 12:57:48;;;;;;;1.85;1.75;;;;;;;;;;5045568;28;20053;-64
2023/10/04 13:00:18;;;;;;;3.60;1.55;;;;;;;;;;5043766;28;20131;-64
2023/10/04 13:02:48;;;;;;;2.22;1.40;;;;;;;;;;5041677;28;20052;-65
2023/10/04 13:05:20;;;;;;;1.98;1.45;;;;;;;;;;5042638;28;20578;-64
2023/10/04 13:07:49;;;;;;;1.60;1.50;;;;;;;;;;5045008;28;20060;-64
2023/10/04 13:10:17;;;;;;;1.92;1.40;;;;;;;;;;5045564;28;20060;-66
2023/10/04 13:12:46;;;;;;;1.60;1.50;;;;;;;;;;5044439;28;20127;-66
2023/10/04 13:15:14;;;;;;;1.58;1.48;;;;;;;;;;5043809;28;20107;-64
2023/10/04 13:17:43;;;;;;;2.92;1.55;;;;;;;;;;5044799;28;20056;-64
2023/10/04 13:20:17;;;;;;;1.52;1.42;;;;;;;;;;5040753;28;20556;-65
2023/10/04 13:22:45;;;;;;;1.90;1.70;;;;;;;;;;5041515;28;20045;-65
2023/10/04 13:25:14;;;;;;;1.80;1.70;;;;;;;;;;5042419;28;20053;-64
2023/10/04 13:27:43;;;;;;;1.77;1.67;;;;;;;;;;5039929;28;20087;-66
2023/10/04 13:30:13;;;;;;;2.17;1.63;;;;;;;;;;5041523;28;20077;-65
2023/10/04 13:32:45;;;;;;;1.60;1.50;;;;;;;;;;5042150;28;20057;-65
2023/10/04 13:35:16;;;;;;;2.25;1.48;;;;;;;;;;5043160;28;20048;-66
2023/10/04 13:37:45;;;;;;;1.70;1.60;;;;;;;;;;5040508;28;20166;-65
2023/10/04 13:40:19;;;;;;;1.73;1.60;;;;;;;;;;5041326;28;20120;-64
2023/10/04 13:42:49;;;;;;;1.95;1.75;;;;;;;;;;5042739;28;20049;-63
2023/10/04 13:45:18;;;;;;;1.70;1.60;;;;;;;;;;5040287;28;20049;-64
2023/10/04 13:47:47;;;;;;;1.75;1.65;;;;;;;;;;5043203;28;20052;-63
2023/10/04 13:50:22;;;;;;;1.73;1.63;;;;;;;;;;5041571;28;20494;-63
2023/10/04 13:52:50;;;;;;;;;;;;;;;;;;5043547;28;20120;-63
2023/10/04 13:55:23;;;;;;;1.80;1.70;;;;;;;;;;5042825;28;19960;-64
2023/10/04 13:57:55;;;;;;;2.17;1.98;;;;;;;;;;5042605;28;20048;-62
2023/10/04 14:00:23;;;;;;;1.52;1.42;;;;;;;;;;5039837;28;20131;-63
2023/10/04 14:02:54;;;;;;;1.98;1.75;;;;;;;;;;5040307;28;20135;-64
2023/10/04 14:05:25;;;;;;;1.63;1.50;;;;;;;;;;5044183;28;20387;-63
2023/10/04 14:07:55;;;;;;;2.13;1.60;;;;;;;;;;5039011;28;20047;-63
2023/10/04 14:10:24;;;;;;;1.58;1.48;;;;;;;;;;5041155;28;20601;-63
2023/10/04 14:12:54;;;;;;;2.10;1.73;;;;;;;;;;5040717;28;20063;-64
2023/10/04 14:15:25;;;;;;;1.60;1.50;;;;;;;;;;5044072;28;20050;-63
2023/10/04 14:17:53;;;;;;;1.40;1.30;;;;;;;;;;5043385;28;20513;-63
2023/10/04 14:20:22;;;;;;;1.80;1.70;;;;;;;;;;5038234;28;20719;-63
2023/10/04 14:22:52;;;;;;;1.60;1.50;;;;;;;;;;5040704;28;20045;-62
2023/10/04 14:25:21;;;;;;;1.50;1.40;;;;;;;;;;5043039;28;20057;-63
2023/10/04 14:27:49;;;;;;;1.77;1.50;;;;;;;;;;5035918;28;20045;-64
2023/10/04 14:30:21;;;;;;;1.42;1.33;;;;;;;;;;5042965;28;20541;-64
2023/10/04 14:32:51;;;;;;;2.53;1.50;;;;;;;;;;5042491;28;20048;-64
2023/10/04 14:35:21;;;;;;;1.45;1.35;;;;;;;;;;5041788;28;20494;-64
2023/10/04 14:37:49;;;;;;;1.77;1.40;;;;;;;;;;5042449;28;21119;-64
2023/10/04 14:40:22;;;;;;;1.60;1.50;;;;;;;;;;5043684;28;20073;-65
2023/10/04 14:42:53;;;;;;;1.58;1.48;;;;;;;;;;5038088;28;20641;-64
2023/10/04 14:45:23;;;;;;;1.65;1.55;;;;;;;;;;5043834;28;20041;-64
2023/10/04 14:47:51;;;;;;;1.52;1.42;;;;;;;;;;5041834;28;20486;-64
2023/10/04 14:50:20;;;;;;;2.25;1.63;;;;;;;;;;5038618;28;20045;-64
2023/10/04 14:52:49;;;;;;;1.50;1.40;;;;;;;;;;5039549;28;20068;-64
2023/10/04 14:55:19;;;;;;;1.50;1.40;;;;;;;;;;5042980;28;20064;-64
2023/10/04 14:57:49;;;;;;;1.40;1.30;;;;;;;;;;5040908;28;20048;-64
2023/10/04 15:00:19;;;;;;;1.60;1.50;;;;;;;;;;5043771;28;20049;-64